createdAt,value
2019-05-17T00:00:37.726Z,8.10
2019-05-17T00:03:07.084Z,8.00
2019-05-17T00:05:37.496Z,7.90
2019-05-17T00:08:07.596Z,7.90
2019-05-17T00:10:37.489Z,7.90
2019-05-17T00:13:07.582Z,7.80
2019-05-17T00:15:36.969Z,7.90
2019-05-17T00:18:06.719Z,7.90
2019-05-17T00:20:37.385Z,7.80
2019-05-17T00:23:07.048Z,7.80
2019-05-17T00:25:36.883Z,7.80
2019-05-17T00:28:07.296Z,7.80
2019-05-17T00:30:37.232Z,7.80
2019-05-17T00:33:07.734Z,7.80
2019-05-17T00:35:37.617Z,7.80
2019-05-17T00:38:06.909Z,7.80
2019-05-17T00:40:36.591Z,7.70
2019-05-17T00:43:06.728Z,7.70
2019-05-17T00:45:37.748Z,7.60
2019-05-17T00:48:06.654Z,7.60
2019-05-17T00:50:37.842Z,7.50
2019-05-17T00:53:07.195Z,7.50
2019-05-17T00:55:36.297Z,7.50
2019-05-17T00:58:06.768Z,7.50
2019-05-17T01:00:37.706Z,7.40
2019-05-17T01:03:07.076Z,7.40
2019-05-17T01:05:37.054Z,7.40
2019-05-17T01:08:07.212Z,7.40
2019-05-17T01:10:36.881Z,7.40
2019-05-17T01:13:07.143Z,7.30
2019-05-17T01:15:37.018Z,7.40
2019-05-17T01:18:07.237Z,7.50
2019-05-17T01:20:36.876Z,7.50
2019-05-17T01:23:07.543Z,7.60
2019-05-17T01:25:37.060Z,7.60
2019-05-17T01:28:07.638Z,7.70
2019-05-17T01:30:37.537Z,7.70
2019-05-17T01:33:06.682Z,7.70
2019-05-17T01:35:37.448Z,7.80
2019-05-17T01:38:07.362Z,7.80
2019-05-17T01:40:37.191Z,7.80
2019-05-17T01:43:07.810Z,7.80
2019-05-17T01:45:36.686Z,7.90
2019-05-17T01:48:07.454Z,8.00
2019-05-17T01:50:37.426Z,8.00
2019-05-17T01:53:07.461Z,8.00
2019-05-17T01:55:37.554Z,8.10
2019-05-17T01:58:07.395Z,8.10
2019-05-17T02:00:37.661Z,8.20
2019-05-17T02:03:07.212Z,8.20
2019-05-17T02:05:37.331Z,8.20
2019-05-17T02:08:28.444Z,8.20
2019-05-17T02:10:57.478Z,8.20
2019-05-17T02:13:26.797Z,8.10
2019-05-17T02:15:56.489Z,8.20
2019-05-17T02:18:26.589Z,8.10
2019-05-17T02:20:57.156Z,8.20
2019-05-17T02:23:27.100Z,8.20
2019-05-17T02:25:57.132Z,8.30
2019-05-17T02:28:25.854Z,8.30
2019-05-17T02:30:54.544Z,8.40
2019-05-17T02:33:23.709Z,8.40
2019-05-17T02:35:53.611Z,8.40
2019-05-17T02:38:22.558Z,8.40
2019-05-17T02:40:53.653Z,8.40
2019-05-17T02:43:23.610Z,8.40
2019-05-17T02:45:52.810Z,8.40
2019-05-17T02:48:23.238Z,8.40
2019-05-17T02:50:53.275Z,8.40
2019-05-17T02:53:23.020Z,8.40
2019-05-17T02:55:53.920Z,8.40
2019-05-17T02:58:23.330Z,8.40
2019-05-17T03:00:53.294Z,8.40
2019-05-17T03:03:23.750Z,8.40
2019-05-17T03:05:53.569Z,8.40
2019-05-17T03:08:23.404Z,8.40
2019-05-17T03:10:53.459Z,8.40
2019-05-17T03:13:23.416Z,8.50
2019-05-17T03:15:52.753Z,8.40
2019-05-17T03:18:22.896Z,8.40
2019-05-17T03:20:52.513Z,8.40
2019-05-17T03:23:23.376Z,8.50
2019-05-17T03:25:52.441Z,8.40
2019-05-17T03:28:23.587Z,8.40
2019-05-17T03:30:56.335Z,8.40
2019-05-17T03:33:26.675Z,8.50
2019-05-17T03:35:56.469Z,8.40
2019-05-17T03:38:25.022Z,8.40
2019-05-17T03:41:09.399Z,8.40
2019-05-17T03:43:23.885Z,8.40
2019-05-17T03:45:53.338Z,8.50
2019-05-17T03:48:22.317Z,8.50
2019-05-17T03:50:53.191Z,8.50
2019-05-17T03:53:22.875Z,8.50
2019-05-17T03:55:53.957Z,8.40
2019-05-17T03:58:23.437Z,8.40
2019-05-17T04:00:53.535Z,8.40
2019-05-17T04:03:22.973Z,8.50
2019-05-17T04:05:52.828Z,8.60
2019-05-17T04:08:22.882Z,8.60
2019-05-17T04:10:52.958Z,8.60
2019-05-17T04:13:23.474Z,8.70
2019-05-17T04:15:53.052Z,8.70
2019-05-17T04:18:23.398Z,8.70
2019-05-17T04:20:52.913Z,8.70
2019-05-17T04:23:23.311Z,8.70
2019-05-17T04:25:53.102Z,8.80
2019-05-17T04:28:22.975Z,8.80
2019-05-17T04:30:52.772Z,8.80
2019-05-17T04:33:23.308Z,8.90
2019-05-17T04:35:54.109Z,8.90
2019-05-17T04:38:43.593Z,8.90
2019-05-17T04:41:13.231Z,8.90
2019-05-17T04:43:42.430Z,9.00
2019-05-17T04:46:13.000Z,9.00
2019-05-17T04:48:43.907Z,9.00
2019-05-17T04:51:13.186Z,9.00
2019-05-17T04:53:43.117Z,9.10
2019-05-17T04:56:14.047Z,9.10
2019-05-17T04:58:42.915Z,9.20
2019-05-17T05:01:13.271Z,9.20
2019-05-17T05:03:43.025Z,9.20
2019-05-17T05:06:13.387Z,9.20
2019-05-17T05:08:42.665Z,9.30
2019-05-17T05:11:12.705Z,9.20
2019-05-17T05:13:42.632Z,9.20
2019-05-17T05:16:13.715Z,9.30
2019-05-17T05:18:42.329Z,9.30
2019-05-17T05:21:12.210Z,9.40
2019-05-17T05:23:42.480Z,9.50
2019-05-17T05:26:12.037Z,9.50
2019-05-17T05:28:41.920Z,9.50
2019-05-17T05:31:13.348Z,9.60
2019-05-17T05:33:41.998Z,9.60
2019-05-17T05:36:11.371Z,9.60
2019-05-17T05:38:42.061Z,9.60
2019-05-17T05:41:12.192Z,9.70
2019-05-17T05:43:41.989Z,9.70
2019-05-17T05:46:11.688Z,9.70
2019-05-17T05:48:41.624Z,9.60
2019-05-17T05:51:13.404Z,9.80
2019-05-17T05:54:01.685Z,10.00
2019-05-17T05:56:32.460Z,10.00
2019-05-17T05:59:02.698Z,10.10
2019-05-17T06:01:32.617Z,10.20
2019-05-17T06:04:02.782Z,10.20
2019-05-17T06:06:32.235Z,10.20
2019-05-17T06:09:02.728Z,10.10
2019-05-17T06:11:32.182Z,10.30
2019-05-17T06:14:01.614Z,10.10
2019-05-17T06:16:32.119Z,10.30
2019-05-17T06:19:02.381Z,10.30
2019-05-17T06:21:31.958Z,10.50
2019-05-17T06:24:02.618Z,10.70
2019-05-17T06:26:31.512Z,10.60
2019-05-17T06:29:02.588Z,10.60
2019-05-17T06:31:30.328Z,10.40
2019-05-17T06:33:58.796Z,10.60
2019-05-17T06:36:27.288Z,10.70
2019-05-17T06:38:55.838Z,10.70
2019-05-17T06:41:24.399Z,10.80
2019-05-17T06:43:52.941Z,11.00
2019-05-17T06:46:22.049Z,11.20
2019-05-17T06:48:52.843Z,11.20
2019-05-17T06:51:22.106Z,11.10
2019-05-17T06:53:52.391Z,11.10
2019-05-17T06:56:22.935Z,11.10
2019-05-17T06:58:51.312Z,11.00
2019-05-17T07:01:19.835Z,11.30
2019-05-17T07:03:49.542Z,11.60
2019-05-17T07:06:21.532Z,11.50
2019-05-17T07:08:50.171Z,11.70
2019-05-17T07:11:20.920Z,11.70
2019-05-17T07:13:49.583Z,12.00
2019-05-17T07:16:19.684Z,12.10
2019-05-17T07:18:49.427Z,12.30
2019-05-17T07:21:20.384Z,12.50
2019-05-17T07:23:49.884Z,12.60
2019-05-17T07:26:19.723Z,12.70
2019-05-17T07:28:49.772Z,12.80
2019-05-17T07:31:20.347Z,12.80
2019-05-17T07:33:50.478Z,12.80
2019-05-17T07:36:19.698Z,12.80
2019-05-17T07:38:50.493Z,13.00
2019-05-17T07:41:20.409Z,13.00
2019-05-17T07:43:49.762Z,13.00
2019-05-17T07:46:20.497Z,13.20
2019-05-17T07:48:49.763Z,12.70
2019-05-17T07:51:19.501Z,12.80
2019-05-17T07:53:49.499Z,13.00
2019-05-17T07:56:20.045Z,13.00
2019-05-17T07:58:49.499Z,13.00
2019-05-17T08:01:20.282Z,13.30
2019-05-17T08:03:50.134Z,13.70
2019-05-17T08:06:19.859Z,13.70
2019-05-17T08:08:50.124Z,14.00
2019-05-17T08:11:19.650Z,14.00
2019-05-17T08:13:50.535Z,14.00
2019-05-17T08:16:19.593Z,14.50
2019-05-17T08:18:49.675Z,14.70
2019-05-17T08:21:19.904Z,14.20
2019-05-17T08:23:50.557Z,14.60
2019-05-17T08:26:20.042Z,14.90
2019-05-17T08:28:49.942Z,14.90
2019-05-17T08:31:20.192Z,14.70
2019-05-17T08:33:49.788Z,14.70
2019-05-17T08:36:20.116Z,14.60
2019-05-17T08:38:50.126Z,14.80
2019-05-17T08:41:20.791Z,15.30
2019-05-17T08:43:51.143Z,15.40
2019-05-17T08:46:20.339Z,15.70
2019-05-17T08:48:49.506Z,15.80
2019-05-17T08:51:19.671Z,16.10
2019-05-17T08:53:49.314Z,16.40
2019-05-17T08:56:20.374Z,16.60
2019-05-17T08:58:49.839Z,16.70
2019-05-17T09:01:19.563Z,16.70
2019-05-17T09:03:50.450Z,16.80
2019-05-17T09:06:19.885Z,16.70
2019-05-17T09:08:50.007Z,16.70
2019-05-17T09:11:19.708Z,15.60
2019-05-17T09:13:58.027Z,15.60
2019-05-17T09:16:19.647Z,16.00
2019-05-17T09:18:50.215Z,16.40
2019-05-17T09:21:21.689Z,16.60
2019-05-17T09:23:50.366Z,16.70
2019-05-17T09:26:20.031Z,16.70
2019-05-17T09:28:49.927Z,16.90
2019-05-17T09:31:20.379Z,17.60
2019-05-17T09:33:49.740Z,18.30
2019-05-17T09:36:20.289Z,17.70
2019-05-17T09:38:49.476Z,17.50
2019-05-17T09:41:20.026Z,17.60
2019-05-17T09:43:49.672Z,18.10
2019-05-17T09:46:19.634Z,18.00
2019-05-17T09:48:50.506Z,18.40
2019-05-17T09:51:19.633Z,18.90
2019-05-17T09:53:49.637Z,18.40
2019-05-17T09:56:20.463Z,18.20
2019-05-17T09:58:49.516Z,18.70
2019-05-17T10:01:19.643Z,17.60
2019-05-17T10:03:50.379Z,17.70
2019-05-17T10:06:20.105Z,17.40
2019-05-17T10:08:49.530Z,17.10
2019-05-17T10:11:20.206Z,18.20
2019-05-17T10:13:49.917Z,18.70
2019-05-17T10:16:20.366Z,19.90
2019-05-17T10:18:48.834Z,20.40
2019-05-17T10:21:19.709Z,19.40
2019-05-17T10:23:49.695Z,19.20
2019-05-17T10:26:19.706Z,19.30
2019-05-17T10:28:48.038Z,18.90
2019-05-17T10:31:16.591Z,17.40
2019-05-17T10:33:45.056Z,16.50
2019-05-17T10:36:13.620Z,18.10
2019-05-17T10:38:42.085Z,19.40
2019-05-17T10:41:10.681Z,19.40
2019-05-17T10:43:39.319Z,18.80
2019-05-17T10:46:10.341Z,17.40
2019-05-17T10:48:40.899Z,17.60
2019-05-17T10:51:09.671Z,17.90
2019-05-17T10:53:40.282Z,17.50
2019-05-17T10:56:09.962Z,17.90
2019-05-17T10:58:39.972Z,18.10
2019-05-17T11:01:10.230Z,18.90
2019-05-17T11:03:39.748Z,18.60
2019-05-17T11:06:10.836Z,19.00
2019-05-17T11:08:38.678Z,19.10
2019-05-17T11:11:10.198Z,18.70
2019-05-17T11:13:38.859Z,18.20
2019-05-17T11:16:07.327Z,17.50
2019-05-17T11:18:35.814Z,17.70
2019-05-17T11:21:04.662Z,17.80
2019-05-17T11:23:33.263Z,18.80
2019-05-17T11:26:01.799Z,18.90
2019-05-17T11:28:30.358Z,19.60
2019-05-17T11:30:58.962Z,19.50
2019-05-17T11:33:27.460Z,19.00
2019-05-17T11:35:55.994Z,18.60
2019-05-17T11:38:24.554Z,18.70
2019-05-17T11:40:53.103Z,18.60
2019-05-17T11:43:21.652Z,18.60
2019-05-17T11:45:50.132Z,17.10
2019-05-17T11:48:18.622Z,17.20
2019-05-17T11:50:47.174Z,17.60
2019-05-17T11:53:15.665Z,17.80
2019-05-17T11:55:44.130Z,17.70
2019-05-17T11:58:12.876Z,17.10
2019-05-17T12:00:41.366Z,17.10
2019-05-17T12:03:09.917Z,17.60
2019-05-17T12:05:38.463Z,18.00
2019-05-17T12:08:08.829Z,18.20
2019-05-17T12:10:37.359Z,18.10
2019-05-17T12:13:05.961Z,18.10
2019-05-17T12:15:44.373Z,18.30
2019-05-17T12:18:05.695Z,18.30
2019-05-17T12:20:34.301Z,18.50
2019-05-17T12:23:02.872Z,18.60
2019-05-17T12:25:32.068Z,18.80
2019-05-17T12:28:00.634Z,19.10
2019-05-17T12:30:29.248Z,19.40
2019-05-17T12:32:58.407Z,20.00
2019-05-17T12:35:26.956Z,20.20
2019-05-17T12:37:55.516Z,19.50
2019-05-17T12:40:24.386Z,18.50
2019-05-17T12:42:52.940Z,18.30
2019-05-17T12:45:21.469Z,18.50
2019-05-17T12:47:49.934Z,18.60
2019-05-17T12:50:18.648Z,18.50
2019-05-17T12:52:47.188Z,18.30
2019-05-17T12:55:15.838Z,18.80
2019-05-17T12:57:44.305Z,19.50
2019-05-17T13:00:13.742Z,20.10
2019-05-17T13:02:42.278Z,20.70
2019-05-17T13:05:11.150Z,20.80
2019-05-17T13:07:40.570Z,20.20
2019-05-17T13:10:09.409Z,19.10
2019-05-17T13:12:37.872Z,18.60
2019-05-17T13:15:07.209Z,18.10
2019-05-17T13:17:37.582Z,18.20
2019-05-17T13:20:10.358Z,18.10
2019-05-17T13:22:38.903Z,18.00
2019-05-17T13:25:08.045Z,18.40
2019-05-17T13:27:38.949Z,18.30
2019-05-17T13:30:09.379Z,18.50
2019-05-17T13:32:37.982Z,20.40
2019-05-17T13:35:08.322Z,22.00
2019-05-17T13:37:36.980Z,24.70
2019-05-17T13:40:07.894Z,24.80
2019-05-17T13:42:36.486Z,23.80
2019-05-17T13:45:07.160Z,22.40
2019-05-17T13:47:35.717Z,21.30
2019-05-17T13:50:07.361Z,21.00
2019-05-17T13:52:35.920Z,20.60
2019-05-17T13:55:06.603Z,20.40
2019-05-17T13:57:35.208Z,20.40
2019-05-17T14:00:08.172Z,20.00
2019-05-17T14:02:36.710Z,20.20
2019-05-17T14:05:06.718Z,20.90
2019-05-17T14:07:35.295Z,22.80
2019-05-17T14:10:05.425Z,22.30
2019-05-17T14:12:33.970Z,24.10
2019-05-17T14:15:04.101Z,25.90
2019-05-17T14:17:32.645Z,24.80
2019-05-17T14:20:01.225Z,25.70
2019-05-17T14:22:29.701Z,23.90
2019-05-17T14:24:58.261Z,20.90
2019-05-17T14:27:26.831Z,20.60
2019-05-17T14:29:55.379Z,20.40
2019-05-17T14:32:23.916Z,20.20
2019-05-17T14:34:52.396Z,22.90
2019-05-17T14:37:20.953Z,26.10
2019-05-17T14:39:49.465Z,25.60
2019-05-17T14:42:18.045Z,25.80
2019-05-17T14:44:46.572Z,26.10
2019-05-17T14:47:15.066Z,28.00
2019-05-17T14:49:43.641Z,26.40
2019-05-17T14:52:12.199Z,27.40
2019-05-17T14:54:40.739Z,28.90
2019-05-17T14:57:09.319Z,28.90
2019-05-17T14:59:37.861Z,28.80
2019-05-17T15:02:06.423Z,29.40
2019-05-17T15:04:34.968Z,29.50
2019-05-17T15:07:03.459Z,29.70
2019-05-17T15:09:32.131Z,29.50
2019-05-17T15:12:01.083Z,28.00
2019-05-17T15:14:29.814Z,26.50
2019-05-17T15:16:58.477Z,24.40
2019-05-17T15:19:26.937Z,23.20
2019-05-17T15:21:55.501Z,21.90
2019-05-17T15:24:24.055Z,22.10
2019-05-17T15:27:04.687Z,24.70
2019-05-17T15:29:27.420Z,26.70
2019-05-17T15:31:56.155Z,28.00
2019-05-17T15:34:24.711Z,26.30
2019-05-17T15:36:53.253Z,24.50
2019-05-17T15:39:21.791Z,23.50
2019-05-17T15:41:50.383Z,23.50
2019-05-17T15:44:20.890Z,24.10
2019-05-17T15:46:51.883Z,23.90
2019-05-17T15:49:20.368Z,23.50
2019-05-17T15:51:48.938Z,23.50
2019-05-17T15:54:17.464Z,23.40
2019-05-17T15:56:45.949Z,22.70
2019-05-17T15:59:14.514Z,21.90
2019-05-17T16:01:43.059Z,21.40
2019-05-17T16:04:11.592Z,21.60
2019-05-17T16:06:40.299Z,22.00
2019-05-17T16:09:08.896Z,21.40
2019-05-17T16:11:37.389Z,20.60
2019-05-17T16:14:05.863Z,20.20
2019-05-17T16:16:34.475Z,19.80
2019-05-17T16:19:03.027Z,19.80
2019-05-17T16:21:31.561Z,19.80
2019-05-17T16:24:00.125Z,19.70
2019-05-17T16:26:28.666Z,19.70
2019-05-17T16:28:57.148Z,19.50
2019-05-17T16:31:25.693Z,19.20
2019-05-17T16:33:54.265Z,19.30
2019-05-17T16:36:22.847Z,19.60
2019-05-17T16:38:52.208Z,20.30
2019-05-17T16:41:20.740Z,20.00
2019-05-17T16:43:49.228Z,19.50
2019-05-17T16:46:17.685Z,19.30
2019-05-17T16:48:46.179Z,19.00
2019-05-17T16:51:14.719Z,18.80
2019-05-17T16:53:43.272Z,18.80
2019-05-17T16:56:11.810Z,18.90
2019-05-17T16:58:40.370Z,18.90
2019-05-17T17:01:09.006Z,18.80
2019-05-17T17:03:44.212Z,18.50
2019-05-17T17:06:10.405Z,18.50
2019-05-17T17:08:39.670Z,18.50
2019-05-17T17:11:08.205Z,18.40
2019-05-17T17:13:36.828Z,18.30
2019-05-17T17:16:09.541Z,18.50
2019-05-17T17:18:38.068Z,18.50
2019-05-17T17:21:06.604Z,18.50
2019-05-17T17:23:35.195Z,18.50
2019-05-17T17:26:03.882Z,18.30
2019-05-17T17:28:32.514Z,18.30
2019-05-17T17:31:01.125Z,18.30
2019-05-17T17:33:29.689Z,18.40
2019-05-17T17:35:58.321Z,18.20
2019-05-17T17:38:26.818Z,18.20
2019-05-17T17:40:55.435Z,18.30
2019-05-17T17:43:23.896Z,18.10
2019-05-17T17:45:52.460Z,18.10
2019-05-17T17:48:20.928Z,18.10
2019-05-17T17:50:49.567Z,18.00
2019-05-17T17:53:18.106Z,17.90
2019-05-17T17:55:46.597Z,17.90
2019-05-17T17:58:15.067Z,17.80
2019-05-17T18:00:43.637Z,17.60
2019-05-17T18:03:12.161Z,17.50
2019-05-17T18:05:40.720Z,17.40
2019-05-17T18:08:09.191Z,17.30
2019-05-17T18:10:38.002Z,17.20
2019-05-17T18:13:06.684Z,17.20
2019-05-17T18:15:44.107Z,17.20
2019-05-17T18:18:12.855Z,17.20
2019-05-17T18:20:41.553Z,17.20
2019-05-17T18:23:10.642Z,17.20
2019-05-17T18:25:39.340Z,17.10
2019-05-17T18:28:08.135Z,17.10
2019-05-17T18:30:36.777Z,17.10
2019-05-17T18:33:05.966Z,16.90
2019-05-17T18:35:36.319Z,16.90
2019-05-17T18:38:05.259Z,16.90
2019-05-17T18:40:33.757Z,16.80
2019-05-17T18:43:02.434Z,16.70
2019-05-17T18:45:31.065Z,16.70
2019-05-17T18:47:59.775Z,16.70
2019-05-17T18:50:28.581Z,16.70
2019-05-17T18:52:57.126Z,16.70
2019-05-17T18:55:25.824Z,16.80
2019-05-17T18:57:54.364Z,16.80
2019-05-17T19:00:24.360Z,16.80
2019-05-17T19:02:52.824Z,16.60
2019-05-17T19:05:21.353Z,16.40
2019-05-17T19:07:49.845Z,16.30
2019-05-17T19:10:18.750Z,16.10
2019-05-17T19:12:47.593Z,15.90
2019-05-17T19:15:16.644Z,15.60
2019-05-17T19:17:45.138Z,15.60
2019-05-17T19:20:14.534Z,15.40
2019-05-17T19:22:43.100Z,15.40
2019-05-17T19:25:12.106Z,15.40
2019-05-17T19:27:40.748Z,15.30
2019-05-17T19:30:09.424Z,15.20
2019-05-17T19:32:37.915Z,15.10
2019-05-17T19:35:06.917Z,15.10
2019-05-17T19:37:35.415Z,14.90
2019-05-17T19:40:07.191Z,14.80
2019-05-17T19:42:35.847Z,14.70
2019-05-17T19:45:08.627Z,14.70
2019-05-17T19:47:37.193Z,14.60
2019-05-17T19:50:07.206Z,14.60
2019-05-17T19:52:35.759Z,14.50
2019-05-17T19:55:06.064Z,14.30
2019-05-17T19:57:34.852Z,14.30
2019-05-17T20:00:05.308Z,14.30
2019-05-17T20:02:33.804Z,14.30
2019-05-17T20:05:02.278Z,14.30
2019-05-17T20:07:38.078Z,14.20
2019-05-17T20:10:00.964Z,14.20
2019-05-17T20:12:29.452Z,14.10
2019-05-17T20:14:57.930Z,14.10
2019-05-17T20:17:26.558Z,14.10
2019-05-17T20:19:55.024Z,14.00
2019-05-17T20:22:23.594Z,14.00
2019-05-17T20:24:52.151Z,13.90
2019-05-17T20:27:20.711Z,13.80
2019-05-17T20:29:49.245Z,13.70
2019-05-17T20:32:19.728Z,13.80
2019-05-17T20:34:48.206Z,13.80
2019-05-17T20:37:16.748Z,13.80
2019-05-17T20:39:45.290Z,13.60
2019-05-17T20:42:13.881Z,13.60
2019-05-17T20:44:42.341Z,13.60
2019-05-17T20:47:10.821Z,13.50
2019-05-17T20:49:39.305Z,13.50
2019-05-17T20:52:07.890Z,13.40
2019-05-17T20:54:36.461Z,13.40
2019-05-17T20:57:04.927Z,13.30
2019-05-17T20:59:33.494Z,13.10
2019-05-17T21:02:02.104Z,12.90
2019-05-17T21:04:30.688Z,12.80
2019-05-17T21:06:59.157Z,12.80
2019-05-17T21:09:27.668Z,12.70
2019-05-17T21:11:56.200Z,12.60
2019-05-17T21:14:24.694Z,12.60
2019-05-17T21:16:53.928Z,12.60
2019-05-17T21:19:22.493Z,12.50
2019-05-17T21:21:51.036Z,12.50
2019-05-17T21:24:19.597Z,12.40
2019-05-17T21:26:48.165Z,12.40
2019-05-17T21:29:16.724Z,12.40
2019-05-17T21:31:45.188Z,12.30
2019-05-17T21:34:13.762Z,12.30
2019-05-17T21:36:42.304Z,12.20
2019-05-17T21:39:11.788Z,12.10
2019-05-17T21:41:40.325Z,12.20
2019-05-17T21:44:08.897Z,12.10
2019-05-17T21:46:37.440Z,11.90
2019-05-17T21:49:05.946Z,11.80
2019-05-17T21:51:34.511Z,11.70
2019-05-17T21:54:03.074Z,11.70
2019-05-17T21:56:31.536Z,11.70
2019-05-17T21:59:00.092Z,11.70
2019-05-17T22:01:31.714Z,11.60
2019-05-17T22:04:00.212Z,11.70
2019-05-17T22:06:28.674Z,11.70
2019-05-17T22:08:57.206Z,11.70
2019-05-17T22:11:25.692Z,11.70
2019-05-17T22:13:54.159Z,11.70
2019-05-17T22:16:22.647Z,11.60
2019-05-17T22:18:51.199Z,11.60
2019-05-17T22:21:19.720Z,11.50
2019-05-17T22:23:48.267Z,11.50
2019-05-17T22:26:16.839Z,11.60
2019-05-17T22:28:45.379Z,11.60
2019-05-17T22:31:14.069Z,11.60
2019-05-17T22:33:42.539Z,11.60
2019-05-17T22:36:11.109Z,11.60
2019-05-17T22:38:39.596Z,11.60
2019-05-17T22:41:08.156Z,11.60
2019-05-17T22:43:36.640Z,11.60
2019-05-17T22:46:05.135Z,11.50
2019-05-17T22:48:33.613Z,11.50
2019-05-17T22:51:02.172Z,11.40
2019-05-17T22:53:30.636Z,11.40
2019-05-17T22:55:59.137Z,11.40
2019-05-17T22:58:27.693Z,11.40
2019-05-17T23:00:56.248Z,11.30
2019-05-17T23:03:24.745Z,11.30
2019-05-17T23:05:53.315Z,11.20
2019-05-17T23:08:21.808Z,11.20
2019-05-17T23:10:50.317Z,11.10
2019-05-17T23:13:18.785Z,11.10
2019-05-17T23:16:03.427Z,11.10
2019-05-17T23:19:08.466Z,11.20
2019-05-17T23:21:37.598Z,11.20
2019-05-17T23:24:06.526Z,11.10
2019-05-17T23:26:35.241Z,11.00
2019-05-17T23:29:04.840Z,11.00
2019-05-17T23:31:33.464Z,10.90
2019-05-17T23:34:01.940Z,10.90
2019-05-17T23:36:30.440Z,10.90
2019-05-17T23:38:59.511Z,10.90
2019-05-17T23:41:28.065Z,10.90
2019-05-17T23:43:56.529Z,10.90
2019-05-17T23:46:25.019Z,10.90
2019-05-17T23:48:55.047Z,10.90
2019-05-17T23:51:23.619Z,10.90
2019-05-17T23:53:52.144Z,10.90
2019-05-17T23:56:20.689Z,10.90
2019-05-17T23:58:49.280Z,10.90
